createdAt,value
2019-02-10T00:02:23.078Z,6.60
2019-02-10T00:04:51.292Z,6.70
2019-02-10T00:07:18.783Z,6.60
2019-02-10T00:09:45.500Z,6.70
2019-02-10T00:12:12.172Z,6.70
2019-02-10T00:14:38.728Z,6.60
2019-02-10T00:17:05.566Z,6.60
2019-02-10T00:19:32.328Z,6.60
2019-02-10T00:21:59.208Z,6.60
2019-02-10T00:24:25.932Z,6.60
2019-02-10T00:26:52.600Z,6.50
2019-02-10T00:29:19.354Z,6.60
2019-02-10T00:31:46.023Z,6.60
2019-02-10T00:34:12.596Z,6.60
2019-02-10T00:36:39.116Z,6.60
2019-02-10T00:39:07.603Z,6.60
2019-02-10T00:41:34.109Z,6.60
2019-02-10T00:44:00.778Z,6.60
2019-02-10T00:46:27.355Z,6.60
2019-02-10T00:48:54.022Z,6.60
2019-02-10T00:51:20.688Z,6.60
2019-02-10T00:53:47.215Z,6.60
2019-02-10T00:56:13.795Z,6.60
2019-02-10T00:58:40.339Z,6.50
2019-02-10T01:01:07.796Z,6.50
2019-02-10T01:03:35.805Z,6.50
2019-02-10T01:06:02.292Z,6.50
2019-02-10T01:08:28.825Z,6.50
2019-02-10T01:10:55.395Z,6.40
2019-02-10T01:13:22.024Z,6.40
2019-02-10T01:15:48.918Z,6.40
2019-02-10T01:18:15.537Z,6.40
2019-02-10T01:20:42.118Z,6.40
2019-02-10T01:23:08.639Z,6.50
2019-02-10T01:25:35.261Z,6.50
2019-02-10T01:28:01.940Z,6.60
2019-02-10T01:30:28.668Z,6.60
2019-02-10T01:32:56.332Z,6.60
2019-02-10T01:35:23.063Z,6.60
2019-02-10T01:37:51.036Z,6.60
2019-02-10T01:40:17.973Z,6.60
2019-02-10T01:42:44.662Z,6.60
2019-02-10T01:45:13.133Z,6.60
2019-02-10T01:47:39.841Z,6.60
2019-02-10T01:50:10.262Z,6.60
2019-02-10T01:52:37.181Z,6.60
2019-02-10T01:55:06.557Z,6.60
2019-02-10T01:57:33.176Z,6.50
2019-02-10T01:59:59.859Z,6.60
2019-02-10T02:02:26.489Z,6.60
2019-02-10T02:04:53.536Z,6.60
2019-02-10T02:07:20.506Z,6.50
2019-02-10T02:09:47.369Z,6.60
2019-02-10T02:12:13.939Z,6.40
2019-02-10T02:14:40.356Z,6.40
2019-02-10T02:17:06.930Z,6.40
2019-02-10T02:19:33.461Z,6.50
2019-02-10T02:22:00.004Z,6.50
2019-02-10T02:24:26.560Z,6.50
2019-02-10T02:26:53.786Z,6.40
2019-02-10T02:29:20.313Z,6.40
2019-02-10T02:31:46.755Z,6.40
2019-02-10T02:34:13.286Z,6.30
2019-02-10T02:36:42.856Z,6.40
2019-02-10T02:39:09.495Z,6.50
2019-02-10T02:41:36.019Z,6.40
2019-02-10T02:44:02.644Z,6.40
2019-02-10T02:46:29.190Z,6.40
2019-02-10T02:48:55.903Z,6.40
2019-02-10T02:51:23.509Z,6.30
2019-02-10T02:53:50.632Z,6.40
2019-02-10T02:56:17.299Z,6.40
2019-02-10T02:58:43.913Z,6.30
2019-02-10T03:01:10.487Z,6.30
2019-02-10T03:03:36.910Z,6.30
2019-02-10T03:06:03.562Z,6.30
2019-02-10T03:08:30.082Z,6.20
2019-02-10T03:10:56.632Z,6.20
2019-02-10T03:13:23.066Z,6.20
2019-02-10T03:15:49.723Z,6.20
2019-02-10T03:18:17.265Z,6.20
2019-02-10T03:20:43.849Z,6.20
2019-02-10T03:23:10.370Z,6.10
2019-02-10T03:25:36.925Z,6.20
2019-02-10T03:28:03.557Z,6.20
2019-02-10T03:30:30.217Z,6.10
2019-02-10T03:32:56.833Z,6.20
2019-02-10T03:35:23.378Z,6.30
2019-02-10T03:37:51.596Z,6.20
2019-02-10T03:40:18.151Z,6.10
2019-02-10T03:42:44.877Z,6.10
2019-02-10T03:45:11.608Z,6.20
2019-02-10T03:47:38.153Z,6.10
2019-02-10T03:50:06.752Z,6.00
2019-02-10T03:52:33.502Z,6.10
2019-02-10T03:55:00.374Z,6.10
2019-02-10T03:57:27.462Z,6.20
2019-02-10T03:59:53.989Z,6.10
2019-02-10T04:02:20.536Z,6.20
2019-02-10T04:04:47.056Z,6.20
2019-02-10T04:07:13.701Z,6.20
2019-02-10T04:09:40.223Z,6.10
2019-02-10T04:12:06.776Z,6.10
2019-02-10T04:14:33.304Z,6.20
2019-02-10T04:16:59.865Z,6.20
2019-02-10T04:19:26.450Z,6.10
2019-02-10T04:21:53.096Z,6.00
2019-02-10T04:24:19.608Z,6.00
2019-02-10T04:26:46.257Z,6.10
2019-02-10T04:29:12.877Z,6.00
2019-02-10T04:31:39.533Z,6.10
2019-02-10T04:34:06.161Z,6.20
2019-02-10T04:36:33.213Z,6.30
2019-02-10T04:39:00.461Z,6.20
2019-02-10T04:41:28.109Z,6.20
2019-02-10T04:43:54.841Z,6.20
2019-02-10T04:46:21.536Z,6.30
2019-02-10T04:48:48.263Z,6.40
2019-02-10T04:51:16.019Z,6.20
2019-02-10T04:53:42.738Z,6.10
2019-02-10T04:56:14.199Z,6.20
2019-02-10T04:58:40.714Z,6.30
2019-02-10T05:01:07.249Z,6.20
2019-02-10T05:03:34.007Z,6.30
2019-02-10T05:06:00.636Z,6.40
2019-02-10T05:08:27.193Z,6.30
2019-02-10T05:10:53.814Z,6.20
2019-02-10T05:13:20.426Z,6.30
2019-02-10T05:15:46.828Z,6.40
2019-02-10T05:18:13.404Z,6.40
2019-02-10T05:20:40.041Z,6.40
2019-02-10T05:23:06.581Z,6.40
2019-02-10T05:25:33.315Z,6.50
2019-02-10T05:28:01.567Z,6.40
2019-02-10T05:30:28.195Z,6.30
2019-02-10T05:32:54.840Z,6.30
2019-02-10T05:35:21.469Z,6.40
2019-02-10T05:37:49.721Z,6.30
2019-02-10T05:40:16.448Z,6.20
2019-02-10T05:42:43.094Z,6.30
2019-02-10T05:45:09.723Z,6.20
2019-02-10T05:47:36.402Z,6.20
2019-02-10T05:50:05.221Z,6.20
2019-02-10T05:52:33.468Z,6.30
2019-02-10T05:55:00.106Z,6.30
2019-02-10T05:57:26.858Z,6.20
2019-02-10T05:59:53.387Z,6.20
2019-02-10T06:02:22.572Z,6.10
2019-02-10T06:04:49.689Z,6.10
2019-02-10T06:07:17.982Z,6.10
2019-02-10T06:09:45.401Z,6.20
2019-02-10T06:12:12.087Z,6.30
2019-02-10T06:14:38.601Z,6.20
2019-02-10T06:17:05.253Z,6.10
2019-02-10T06:19:31.960Z,6.10
2019-02-10T06:21:58.618Z,6.20
2019-02-10T06:24:25.245Z,6.20
2019-02-10T06:26:51.887Z,6.30
2019-02-10T06:29:18.509Z,6.30
2019-02-10T06:31:45.129Z,6.30
2019-02-10T06:34:11.716Z,6.40
2019-02-10T06:36:38.233Z,6.40
2019-02-10T06:39:05.606Z,6.40
2019-02-10T06:41:32.229Z,6.40
2019-02-10T06:43:58.882Z,6.30
2019-02-10T06:46:25.509Z,6.30
2019-02-10T06:48:52.261Z,6.40
2019-02-10T06:51:19.285Z,6.20
2019-02-10T06:53:46.033Z,6.20
2019-02-10T06:56:12.666Z,6.20
2019-02-10T06:58:39.414Z,6.30
2019-02-10T07:01:07.935Z,6.30
2019-02-10T07:03:45.292Z,6.30
2019-02-10T07:06:13.217Z,6.30
2019-02-10T07:08:40.970Z,6.20
2019-02-10T07:11:08.602Z,6.20
2019-02-10T07:13:43.753Z,6.30
2019-02-10T07:16:35.104Z,6.40
2019-02-10T07:19:37.256Z,6.30
2019-02-10T07:22:33.373Z,6.30
2019-02-10T07:25:15.951Z,6.20
2019-02-10T07:28:00.423Z,6.20
2019-02-10T07:30:50.388Z,6.20
2019-02-10T07:33:38.838Z,6.30
2019-02-10T07:36:19.587Z,6.30
2019-02-10T07:38:50.041Z,6.20
2019-02-10T07:41:23.262Z,6.20
2019-02-10T07:43:53.592Z,6.30
2019-02-10T07:46:41.087Z,6.40
2019-02-10T07:49:36.269Z,6.40
2019-02-10T07:52:35.820Z,6.40
2019-02-10T07:55:17.842Z,6.50
2019-02-10T07:58:08.316Z,6.40
2019-02-10T08:00:41.293Z,6.40
2019-02-10T08:03:14.632Z,6.40
2019-02-10T08:05:47.876Z,6.40
2019-02-10T08:08:33.484Z,6.40
2019-02-10T08:11:27.058Z,6.40
2019-02-10T08:14:14.252Z,6.40
2019-02-10T08:17:01.584Z,6.30
2019-02-10T08:19:50.569Z,6.30
2019-02-10T08:22:51.558Z,6.30
2019-02-10T08:25:38.394Z,6.30
2019-02-10T08:28:25.492Z,6.40
2019-02-10T08:31:02.110Z,6.50
2019-02-10T08:33:34.247Z,6.40
2019-02-10T08:36:04.824Z,6.40
2019-02-10T08:38:39.067Z,6.50
2019-02-10T08:41:35.367Z,6.60
2019-02-10T08:44:22.672Z,6.60
2019-02-10T08:46:59.037Z,6.50
2019-02-10T08:49:32.326Z,6.40
2019-02-10T08:52:05.403Z,6.30
2019-02-10T08:54:32.038Z,6.30
2019-02-10T08:56:58.756Z,6.40
2019-02-10T08:59:25.281Z,6.40
2019-02-10T09:01:51.939Z,6.40
2019-02-10T09:04:18.460Z,6.60
2019-02-10T09:06:45.121Z,6.60
2019-02-10T09:09:11.654Z,6.50
2019-02-10T09:11:38.315Z,6.40
2019-02-10T09:14:04.940Z,6.40
2019-02-10T09:16:32.494Z,6.40
2019-02-10T09:19:00.232Z,6.50
2019-02-10T09:21:27.399Z,6.40
2019-02-10T09:23:54.026Z,6.50
2019-02-10T09:26:20.790Z,6.50
2019-02-10T09:28:47.312Z,6.60
2019-02-10T09:31:14.090Z,6.50
2019-02-10T09:33:40.937Z,6.40
2019-02-10T09:36:07.662Z,6.40
2019-02-10T09:38:34.225Z,6.30
2019-02-10T09:41:00.798Z,6.30
2019-02-10T09:43:27.369Z,6.40
2019-02-10T09:45:53.888Z,6.30
2019-02-10T09:48:20.519Z,6.30
2019-02-10T09:50:46.946Z,6.30
2019-02-10T09:53:13.521Z,6.50
2019-02-10T09:55:40.083Z,6.40
2019-02-10T09:58:06.596Z,6.30
2019-02-10T10:00:33.158Z,6.30
2019-02-10T10:02:59.734Z,6.20
2019-02-10T10:05:26.415Z,6.30
2019-02-10T10:07:52.986Z,6.30
2019-02-10T10:10:19.723Z,6.30
2019-02-10T10:12:46.500Z,6.40
2019-02-10T10:15:15.134Z,6.30
2019-02-10T10:17:41.824Z,6.40
2019-02-10T10:20:10.935Z,6.50
2019-02-10T10:22:37.596Z,6.50
2019-02-10T10:25:06.346Z,6.70
2019-02-10T10:27:32.942Z,6.50
2019-02-10T10:30:01.168Z,6.60
2019-02-10T10:32:28.193Z,6.50
2019-02-10T10:34:54.865Z,6.50
2019-02-10T10:37:21.585Z,6.50
2019-02-10T10:39:48.205Z,6.60
2019-02-10T10:42:15.276Z,6.50
2019-02-10T10:44:41.934Z,6.30
2019-02-10T10:47:08.638Z,6.30
2019-02-10T10:49:35.316Z,6.40
2019-02-10T10:52:01.938Z,6.30
2019-02-10T10:54:29.597Z,6.20
2019-02-10T10:56:56.232Z,6.50
2019-02-10T10:59:22.918Z,6.50
2019-02-10T11:01:49.642Z,6.70
2019-02-10T11:04:16.264Z,6.60
2019-02-10T11:06:42.813Z,6.60
2019-02-10T11:09:09.434Z,6.70
2019-02-10T11:11:36.151Z,6.60
2019-02-10T11:14:02.849Z,6.60
2019-02-10T11:16:29.518Z,6.60
2019-02-10T11:18:56.146Z,6.60
2019-02-10T11:21:22.752Z,6.70
2019-02-10T11:23:49.259Z,6.80
2019-02-10T11:26:15.841Z,6.80
2019-02-10T11:28:42.510Z,6.70
2019-02-10T11:31:09.028Z,6.70
2019-02-10T11:33:35.555Z,6.90
2019-02-10T11:36:02.171Z,6.80
2019-02-10T11:38:28.843Z,6.80
2019-02-10T11:40:55.404Z,6.90
2019-02-10T11:43:22.033Z,6.90
2019-02-10T11:45:48.808Z,7.00
2019-02-10T11:48:15.760Z,6.90
2019-02-10T11:50:43.391Z,7.00
2019-02-10T11:53:10.061Z,6.80
2019-02-10T11:55:36.584Z,6.70
2019-02-10T11:58:04.839Z,6.60
2019-02-10T12:00:31.573Z,6.70
2019-02-10T12:02:58.289Z,6.80
2019-02-10T12:05:24.849Z,6.80
2019-02-10T12:07:51.602Z,6.90
2019-02-10T12:10:18.240Z,6.80
2019-02-10T12:12:44.905Z,6.70
2019-02-10T12:15:13.509Z,6.70
2019-02-10T12:17:40.233Z,6.90
2019-02-10T12:20:10.176Z,6.80
2019-02-10T12:22:36.638Z,6.80
2019-02-10T12:25:05.116Z,6.80
2019-02-10T12:27:31.785Z,6.90
2019-02-10T12:29:58.322Z,6.80
2019-02-10T12:32:24.869Z,6.80
2019-02-10T12:34:51.661Z,6.70
2019-02-10T12:37:18.268Z,6.80
2019-02-10T12:39:44.936Z,6.70
2019-02-10T12:42:11.505Z,6.80
2019-02-10T12:44:38.144Z,6.60
2019-02-10T12:47:04.723Z,6.80
2019-02-10T12:49:31.327Z,6.90
2019-02-10T12:51:57.977Z,6.80
2019-02-10T12:54:24.649Z,6.80
2019-02-10T12:56:51.504Z,6.80
2019-02-10T12:59:18.167Z,6.90
2019-02-10T13:01:44.688Z,6.80
2019-02-10T13:04:11.268Z,6.70
2019-02-10T13:06:37.930Z,6.80
2019-02-10T13:09:06.610Z,6.90
2019-02-10T13:11:33.938Z,6.90
2019-02-10T13:14:00.632Z,6.90
2019-02-10T13:16:27.132Z,7.00
2019-02-10T13:18:53.792Z,7.10
2019-02-10T13:21:20.316Z,7.10
2019-02-10T13:23:46.773Z,7.00
2019-02-10T13:26:13.396Z,7.10
2019-02-10T13:28:40.073Z,7.20
2019-02-10T13:31:07.632Z,7.10
2019-02-10T13:33:34.452Z,7.30
2019-02-10T13:36:01.573Z,7.20
2019-02-10T13:38:28.320Z,7.20
2019-02-10T13:40:54.878Z,7.20
2019-02-10T13:43:21.427Z,7.20
2019-02-10T13:45:48.005Z,7.30
2019-02-10T13:48:14.633Z,7.30
2019-02-10T13:50:41.419Z,7.30
2019-02-10T13:53:09.082Z,7.10
2019-02-10T13:55:35.849Z,7.20
2019-02-10T13:58:02.380Z,7.20
2019-02-10T14:00:29.197Z,7.40
2019-02-10T14:02:56.486Z,7.30
2019-02-10T14:05:23.245Z,7.40
2019-02-10T14:07:51.474Z,7.30
2019-02-10T14:10:25.189Z,7.40
2019-02-10T14:12:46.802Z,7.40
2019-02-10T14:15:17.144Z,7.40
2019-02-10T14:17:43.865Z,7.30
2019-02-10T14:20:14.109Z,7.40
2019-02-10T14:22:41.341Z,7.50
2019-02-10T14:25:09.776Z,7.60
2019-02-10T14:27:36.540Z,7.60
2019-02-10T14:30:13.017Z,7.50
2019-02-10T14:32:39.701Z,7.60
2019-02-10T14:35:06.468Z,7.70
2019-02-10T14:37:33.312Z,7.60
2019-02-10T14:39:59.841Z,7.60
2019-02-10T14:42:26.584Z,7.70
2019-02-10T14:44:53.201Z,7.90
2019-02-10T14:47:19.852Z,7.80
2019-02-10T14:49:46.596Z,7.80
2019-02-10T14:52:13.271Z,7.90
2019-02-10T14:54:39.845Z,7.90
2019-02-10T14:57:06.499Z,7.80
2019-02-10T14:59:33.121Z,7.80
2019-02-10T15:01:59.791Z,7.90
2019-02-10T15:04:26.327Z,7.90
2019-02-10T15:06:52.996Z,7.80
2019-02-10T15:09:19.562Z,7.80
2019-02-10T15:11:46.189Z,7.90
2019-02-10T15:14:12.753Z,7.90
2019-02-10T15:16:39.269Z,8.00
2019-02-10T15:19:05.845Z,8.00
2019-02-10T15:21:32.458Z,8.00
2019-02-10T15:23:59.078Z,8.00
2019-02-10T15:26:25.752Z,8.00
2019-02-10T15:28:52.472Z,8.00
2019-02-10T15:31:19.095Z,8.00
2019-02-10T15:33:45.912Z,8.00
2019-02-10T15:36:12.627Z,8.10
2019-02-10T15:38:39.300Z,8.10
2019-02-10T15:41:05.924Z,8.10
2019-02-10T15:43:32.497Z,8.10
2019-02-10T15:45:59.124Z,8.10
2019-02-10T15:48:25.834Z,8.10
2019-02-10T15:50:52.428Z,8.00
2019-02-10T15:53:19.105Z,8.00
2019-02-10T15:55:46.019Z,8.10
2019-02-10T15:58:12.698Z,8.00
2019-02-10T16:00:39.260Z,8.10
2019-02-10T16:03:05.836Z,8.10
2019-02-10T16:05:32.348Z,8.20
2019-02-10T16:07:58.931Z,8.20
2019-02-10T16:10:25.545Z,8.20
2019-02-10T16:12:52.118Z,8.10
2019-02-10T16:15:18.642Z,8.10
2019-02-10T16:17:45.293Z,8.20
2019-02-10T16:20:13.270Z,8.20
2019-02-10T16:22:39.891Z,8.20
2019-02-10T16:25:07.964Z,8.20
2019-02-10T16:27:34.796Z,8.20
2019-02-10T16:30:05.467Z,8.20
2019-02-10T16:32:32.232Z,8.20
2019-02-10T16:34:59.666Z,8.20
2019-02-10T16:37:27.937Z,8.20
2019-02-10T16:39:54.552Z,8.20
2019-02-10T16:42:21.240Z,8.20
2019-02-10T16:44:47.906Z,8.00
2019-02-10T16:47:14.424Z,8.10
2019-02-10T16:49:42.107Z,8.10
2019-02-10T16:52:08.763Z,8.20
2019-02-10T16:54:35.537Z,8.10
2019-02-10T16:57:02.294Z,8.10
2019-02-10T16:59:28.929Z,8.10
2019-02-10T17:01:55.693Z,8.20
2019-02-10T17:04:22.216Z,8.20
2019-02-10T17:06:48.905Z,8.20
2019-02-10T17:09:16.032Z,8.20
2019-02-10T17:11:42.599Z,8.20
2019-02-10T17:14:09.231Z,8.30
2019-02-10T17:16:35.797Z,8.20
2019-02-10T17:19:02.581Z,8.20
2019-02-10T17:21:29.165Z,8.20
2019-02-10T17:23:55.959Z,8.10
2019-02-10T17:26:22.651Z,8.20
2019-02-10T17:28:49.276Z,8.20
2019-02-10T17:31:15.837Z,8.10
2019-02-10T17:33:42.504Z,8.10
2019-02-10T17:36:09.251Z,8.20
2019-02-10T17:38:35.936Z,8.20
2019-02-10T17:41:06.793Z,8.20
2019-02-10T17:43:33.477Z,8.30
2019-02-10T17:46:00.101Z,8.30
2019-02-10T17:48:27.500Z,8.30
2019-02-10T17:50:54.199Z,8.30
2019-02-10T17:53:21.146Z,8.30
2019-02-10T17:55:47.853Z,8.30
2019-02-10T17:58:14.640Z,8.30
2019-02-10T18:00:43.219Z,8.30
2019-02-10T18:03:10.063Z,8.30
2019-02-10T18:05:37.830Z,8.30
2019-02-10T18:08:04.457Z,8.20
2019-02-10T18:10:31.127Z,8.30
2019-02-10T18:12:57.789Z,8.30
2019-02-10T18:15:42.828Z,8.40
2019-02-10T18:18:11.303Z,8.40
2019-02-10T18:20:39.855Z,8.30
2019-02-10T18:23:17.551Z,8.50
2019-02-10T18:25:46.035Z,8.40
2019-02-10T18:28:32.465Z,8.30
2019-02-10T18:31:17.673Z,8.40
2019-02-10T18:33:46.398Z,8.20
2019-02-10T18:36:17.889Z,8.20
2019-02-10T18:38:49.397Z,8.20
2019-02-10T18:41:18.003Z,8.00
2019-02-10T18:43:47.280Z,8.00
2019-02-10T18:46:19.007Z,8.00
2019-02-10T18:49:04.317Z,7.90
2019-02-10T18:51:49.997Z,7.90
2019-02-10T18:54:30.649Z,7.90
2019-02-10T18:57:08.030Z,8.00
2019-02-10T18:59:42.142Z,7.90
2019-02-10T19:02:28.936Z,7.80
2019-02-10T19:05:03.495Z,7.70
2019-02-10T19:07:32.628Z,7.80
2019-02-10T19:10:01.287Z,7.80
2019-02-10T19:12:32.789Z,7.80
2019-02-10T19:15:10.119Z,7.80
2019-02-10T19:17:41.672Z,7.70
2019-02-10T19:20:14.323Z,7.70
2019-02-10T19:22:53.285Z,7.80
2019-02-10T19:25:24.860Z,7.60
2019-02-10T19:27:53.622Z,7.60
2019-02-10T19:30:22.708Z,7.60
2019-02-10T19:33:03.418Z,7.60
2019-02-10T19:35:35.119Z,7.70
2019-02-10T19:38:12.781Z,7.60
2019-02-10T19:40:46.965Z,7.50
2019-02-10T19:43:18.147Z,7.60
2019-02-10T19:46:01.709Z,7.60
2019-02-10T19:48:30.288Z,7.50
2019-02-10T19:51:04.663Z,7.60
2019-02-10T19:53:33.416Z,7.60
2019-02-10T19:56:05.144Z,7.50
2019-02-10T19:58:43.316Z,7.50
2019-02-10T20:01:30.022Z,7.50
2019-02-10T20:04:13.953Z,7.40
2019-02-10T20:06:58.445Z,7.30
2019-02-10T20:09:27.723Z,7.20
2019-02-10T20:12:04.129Z,7.20
2019-02-10T20:14:41.349Z,7.20
2019-02-10T20:17:13.301Z,7.20
2019-02-10T20:20:00.325Z,7.20
2019-02-10T20:22:30.478Z,7.20
2019-02-10T20:25:18.841Z,7.10
2019-02-10T20:27:57.080Z,7.10
2019-02-10T20:30:28.852Z,7.30
2019-02-10T20:33:16.007Z,7.10
2019-02-10T20:35:56.721Z,7.10
2019-02-10T20:38:34.328Z,7.10
2019-02-10T20:41:02.937Z,7.10
2019-02-10T20:43:31.832Z,7.10
2019-02-10T20:46:06.515Z,7.10
2019-02-10T20:48:54.165Z,7.00
2019-02-10T20:51:31.818Z,7.00
2019-02-10T20:54:12.460Z,7.00
2019-02-10T20:56:44.388Z,7.10
2019-02-10T20:59:28.004Z,7.10
2019-02-10T21:02:11.931Z,7.00
2019-02-10T21:04:44.332Z,6.80
2019-02-10T21:07:18.552Z,6.80
2019-02-10T21:09:50.939Z,6.70
2019-02-10T21:12:25.442Z,6.60
2019-02-10T21:14:56.973Z,6.40
2019-02-10T21:17:34.417Z,6.10
2019-02-10T21:20:05.765Z,6.20
2019-02-10T21:22:51.784Z,6.00
2019-02-10T21:25:33.201Z,5.70
2019-02-10T21:28:10.597Z,5.70
2019-02-10T21:30:51.250Z,5.60
2019-02-10T21:33:29.099Z,5.60
2019-02-10T21:36:09.924Z,5.50
2019-02-10T21:38:50.581Z,5.50
2019-02-10T21:41:19.157Z,5.30
2019-02-10T21:43:50.722Z,5.20
2019-02-10T21:46:35.894Z,5.20
2019-02-10T21:49:03.808Z,5.00
2019-02-10T21:51:30.524Z,4.80
2019-02-10T21:53:57.094Z,4.80
2019-02-10T21:56:23.756Z,4.70
2019-02-10T21:58:50.289Z,4.90
2019-02-10T22:01:16.955Z,4.80
2019-02-10T22:03:43.485Z,5.00
2019-02-10T22:06:10.080Z,5.00
2019-02-10T22:08:36.601Z,4.90
2019-02-10T22:11:03.172Z,5.00
2019-02-10T22:13:29.846Z,4.90
2019-02-10T22:15:56.364Z,5.00
2019-02-10T22:18:22.939Z,5.00
2019-02-10T22:20:49.551Z,5.20
2019-02-10T22:23:16.104Z,5.00
2019-02-10T22:25:42.820Z,5.00
2019-02-10T22:28:09.509Z,4.80
2019-02-10T22:30:36.125Z,4.80
2019-02-10T22:33:02.706Z,4.80
2019-02-10T22:35:29.326Z,4.40
2019-02-10T22:37:55.892Z,4.00
2019-02-10T22:40:22.726Z,3.90
2019-02-10T22:42:49.382Z,3.70
2019-02-10T22:45:15.949Z,3.60
2019-02-10T22:47:42.467Z,3.40
2019-02-10T22:50:11.539Z,3.00
2019-02-10T22:52:38.229Z,2.60
2019-02-10T22:55:05.133Z,2.40
2019-02-10T22:57:31.813Z,2.40
2019-02-10T22:59:58.424Z,2.50
2019-02-10T23:02:26.252Z,2.50
2019-02-10T23:04:54.507Z,2.40
2019-02-10T23:07:22.759Z,2.50
2019-02-10T23:09:50.976Z,2.50
2019-02-10T23:12:17.944Z,2.40
2019-02-10T23:14:44.565Z,2.30
2019-02-10T23:17:11.355Z,2.30
2019-02-10T23:19:37.977Z,2.30
2019-02-10T23:22:04.797Z,2.20
2019-02-10T23:24:33.072Z,2.20
2019-02-10T23:26:59.697Z,2.40
2019-02-10T23:29:26.559Z,2.40
2019-02-10T23:31:53.126Z,2.30
2019-02-10T23:34:19.750Z,2.20
2019-02-10T23:36:46.521Z,2.20
2019-02-10T23:39:13.250Z,2.10
2019-02-10T23:41:39.820Z,1.90
2019-02-10T23:44:06.434Z,1.90
2019-02-10T23:46:33.004Z,1.90
2019-02-10T23:48:59.621Z,1.80
2019-02-10T23:51:26.314Z,1.90
2019-02-10T23:53:52.866Z,1.80
2019-02-10T23:56:19.380Z,1.70
2019-02-10T23:58:46.050Z,1.70
